Time;durP1;ratioP1;P1;durP2;ratioP2;P2;SDS_P1;SDS_P2;PMS_P1;PMS_P2;Temp;Humidity;BMP_temperature;BMP_pressure;BME280_temperature;BME280_humidity;BME280_pressure;Samples;Min_cycle;Max_cycle;Signal;HPM_P1;HPM_P2
2022/06/16 00:00:33;;;;;;;6.78;4.30;;;;;;;24.57;49.75;102112.84;5078152;28;20791;-49
2022/06/16 00:03:01;;;;;;;8.10;4.18;;;;;;;24.56;49.51;102103.88;5079075;28;20033;-49
2022/06/16 00:05:31;;;;;;;8.18;3.67;;;;;;;24.55;49.22;102110.28;5077383;28;20078;-47
2022/06/16 00:07:57;;;;;;;6.53;4.20;;;;;;;24.55;49.51;102106.72;5076365;28;20048;-47
2022/06/16 00:10:24;;;;;;;8.00;4.50;;;;;;;24.54;49.36;102105.88;5076080;28;20052;-46
2022/06/16 00:12:51;;;;;;;5.93;4.05;;;;;;;24.53;49.61;102098.78;5077857;28;20040;-50
2022/06/16 00:15:22;;;;;;;6.63;4.10;;;;;;;24.52;49.64;102107.94;5077591;28;20051;-48
2022/06/16 00:17:49;;;;;;;5.53;3.95;;;;;;;24.52;50.02;102107.94;5076964;28;20054;-49
2022/06/16 00:20:17;;;;;;;7.00;4.38;;;;;;;24.50;49.42;102115.38;5074523;28;20161;-47
2022/06/16 00:22:43;;;;;;;7.75;3.92;;;;;;;24.50;50.07;102109.94;5076619;28;20048;-47
2022/06/16 00:25:11;;;;;;;5.25;3.72;;;;;;;24.50;50.01;102109.09;5081217;28;20531;-49
2022/06/16 00:27:38;;;;;;;6.93;3.53;;;;;;;24.47;49.50;102104.84;5080369;28;20052;-48
2022/06/16 00:30:07;;;;;;;6.68;3.60;;;;;;;24.46;49.90;102114.00;5076598;28;20539;-50
2022/06/16 00:32:33;;;;;;;6.25;3.83;;;;;;;24.45;50.22;102106.91;5081336;28;20308;-48
2022/06/16 00:35:00;;;;;;;6.75;3.92;;;;;;;24.45;50.19;102106.91;5079915;28;20040;-48
2022/06/16 00:37:26;;;;;;;5.63;3.88;;;;;;;24.43;49.69;102103.47;5075505;28;20044;-49
2022/06/16 00:39:53;;;;;;;5.25;3.45;;;;;;;24.43;49.89;102099.94;5074659;28;20135;-48
2022/06/16 00:42:24;;;;;;;5.20;3.90;;;;;;;24.42;50.01;102106.38;5079002;28;20481;-49
2022/06/16 00:44:53;;;;;;;5.10;3.33;;;;;;;24.41;49.71;102110.09;5074956;28;20055;-46
2022/06/16 00:47:23;;;;;;;6.85;4.03;;;;;;;24.40;49.60;102108.38;5078027;28;20048;-50
2022/06/16 00:49:53;;;;;;;4.47;3.30;;;;;;;24.38;50.22;102109.41;5078399;28;20040;-48
2022/06/16 00:52:25;;;;;;;5.85;3.65;;;;;;;24.37;49.71;102114.97;5076338;28;20036;-48
2022/06/16 00:54:59;;;;;;;6.28;3.30;;;;;;;24.37;50.15;102114.97;5075721;28;20040;-51
2022/06/16 00:57:33;;;;;;;8.45;3.55;;;;;;;24.37;49.86;102117.69;5076926;28;20088;-47
2022/06/16 01:00:01;;;;;;;5.82;3.42;;;;;;;24.37;49.85;102125.81;5073072;28;20442;-49
2022/06/16 01:02:29;;;;;;;5.97;3.60;;;;;;;24.34;50.21;102124.25;5080150;28;20316;-46
2022/06/16 01:04:55;;;;;;;7.28;3.55;;;;;;;24.33;49.86;102129.88;5078222;28;20049;-49
2022/06/16 01:07:34;;;;;;;6.40;3.78;;;;;;;24.31;49.86;102127.28;5079838;28;20046;-49
2022/06/16 01:10:01;;;;;;;7.20;3.90;;;;;;;24.31;50.21;102135.44;5079227;28;20327;-51
2022/06/16 01:16:00;;;;;;;5.57;3.13;;;;;;;24.28;49.67;102137.63;5079244;28;20139;-48
2022/06/16 01:18:52;;;;;;;6.97;3.78;;;;;;;24.27;49.91;102138.63;5073440;28;20156;-46
2022/06/16 01:21:19;;;;;;;4.97;3.28;;;;;;;24.27;50.50;102146.75;5077672;28;20416;-49
2022/06/16 01:24:05;;;;;;;6.53;3.20;;;;;;;24.22;49.80;102141.84;5078569;28;20058;-47
2022/06/16 01:26:37;;;;;;;6.18;3.03;;;;;;;24.22;50.05;102143.69;5079856;28;20051;-50
2022/06/16 01:29:26;;;;;;;5.50;3.03;;;;;;;24.19;49.93;102142.16;5080463;28;20124;-46
2022/06/16 01:31:56;;;;;;;6.00;3.30;;;;;;;24.20;49.97;102145.72;5078626;28;20044;-47
2022/06/16 01:34:35;;;;;;;3.95;2.90;;;;;;;24.18;50.41;102153.16;5073646;28;20051;-49
2022/06/16 01:37:12;;;;;;;4.72;2.92;;;;;;;24.14;50.17;102141.81;5078825;28;20427;-47
2022/06/16 01:40:20;;;;;;;7.35;2.80;;;;;;;24.08;50.64;102139.72;5075268;28;20155;-48
2022/06/16 01:43:08;;;;;;;9.73;3.20;;;;;;;24.05;50.02;102138.22;5043645;28;20120;-49
2022/06/16 01:45:56;;;;;;;4.18;3.08;;;;;;;24.04;50.00;102127.53;5072120;28;20127;-50
2022/06/16 01:48:25;;;;;;;5.45;3.13;;;;;;;24.03;50.05;102132.09;5074879;28;20043;-47
2022/06/16 01:50:55;;;;;;;4.50;3.13;;;;;;;24.01;50.86;102141.41;5075180;28;20048;-50
2022/06/16 01:53:30;;;;;;;4.45;3.25;;;;;;;23.98;50.87;102139.88;5074016;28;20040;-47
2022/06/16 01:56:13;;;;;;;5.45;3.00;;;;;;;23.98;50.62;102141.72;5073743;28;20044;-48
2022/06/16 01:58:44;;;;;;;6.53;3.38;;;;;;;23.96;50.25;102147.31;5077823;28;20311;-49
2022/06/16 02:01:17;;;;;;;5.00;2.72;;;;;;;23.94;50.53;102143.91;5072795;28;20040;-46
2022/06/16 02:03:49;;;;;;;3.78;2.90;;;;;;;23.94;50.41;102145.78;5073018;28;20052;-50
2022/06/16 02:06:23;;;;;;;7.22;2.72;;;;;;;23.93;51.15;102155.75;5076615;28;20056;-48
2022/06/16 02:09:00;;;;;;;3.85;2.72;;;;;;;23.91;50.50;102149.63;5072835;28;20041;-46
2022/06/16 02:11:31;;;;;;;7.63;3.10;;;;;;;23.90;51.09;102156.06;5076908;28;20044;-46
2022/06/16 02:14:06;;;;;;;3.65;2.42;;;;;;;23.88;50.95;102153.53;5074291;28;20046;-46
2022/06/16 02:16:34;;;;;;;16.75;3.20;;;;;;;23.87;51.26;102145.56;5072310;28;20040;-46
2022/06/16 02:19:04;;;;;;;4.97;3.15;;;;;;;23.87;51.20;102150.97;5074374;28;20343;-47
2022/06/16 02:21:36;;;;;;;5.10;3.15;;;;;;;23.85;51.22;102156.56;5069145;28;20083;-50
2022/06/16 02:24:06;;;;;;;4.00;2.67;;;;;;;23.83;51.15;102153.16;5079315;28;20036;-49
2022/06/16 02:26:33;;;;;;;4.80;2.78;;;;;;;23.82;51.00;102153.31;5074644;28;20416;-46
2022/06/16 02:29:18;;;;;;;5.05;3.00;;;;;;;23.82;51.23;102148.75;5074578;28;20334;-49
2022/06/16 02:32:08;;;;;;;4.43;2.65;;;;;;;23.81;50.96;102148.91;5074756;28;20046;-46
2022/06/16 02:34:50;;;;;;;4.50;2.53;;;;;;;23.80;51.31;102141.78;5075378;28;20068;-49
2022/06/16 02:37:44;;;;;;;4.93;2.90;;;;;;;23.77;50.90;102145.69;5037227;28;1078471;-48
2022/06/16 02:40:35;;;;;;;5.40;2.83;;;;;;;23.77;51.29;102159.22;5077420;28;20044;-48
2022/06/16 02:43:24;;;;;;;5.20;2.50;;;;;;;23.77;51.14;102163.78;5076654;28;20040;-48
2022/06/16 02:46:10;;;;;;;3.88;2.70;;;;;;;23.76;51.19;102170.19;5077828;28;20079;-48
2022/06/16 02:48:59;;;;;;;5.15;2.42;;;;;;;23.75;51.07;102160.38;5074549;28;20135;-50
2022/06/16 02:51:42;;;;;;;5.32;3.00;;;;;;;23.74;51.20;102155.97;5078512;28;20123;-49
2022/06/16 02:54:22;;;;;;;5.03;2.72;;;;;;;23.71;51.33;102159.84;5075319;28;20036;-48
2022/06/16 02:56:59;;;;;;;7.50;2.78;;;;;;;23.71;50.70;102169.81;5081360;28;20132;-50
2022/06/16 02:59:32;;;;;;;5.32;2.67;;;;;;;23.70;51.23;102187.09;5076219;28;20050;-47
2022/06/16 03:02:03;;;;;;;4.27;3.03;;;;;;;23.69;50.69;102188.94;5078085;28;20047;-50
2022/06/16 03:04:39;;;;;;;5.70;2.35;;;;;;;23.68;50.94;102198.09;5076181;28;20414;-49
2022/06/16 03:07:05;;;;;;;3.63;2.58;;;;;;;23.67;51.54;102200.94;5074017;28;20049;-49
2022/06/16 03:09:32;;;;;;;3.55;2.40;;;;;;;23.64;51.44;102202.94;5075853;28;20062;-47
2022/06/16 03:11:58;;;;;;;5.28;2.45;;;;;;;23.63;51.05;102213.88;5080331;28;20731;-49
2022/06/16 03:14:25;;;;;;;5.32;2.38;;;;;;;23.62;50.88;102217.63;5077751;28;21633;-48
2022/06/16 03:16:51;;;;;;;4.30;2.45;;;;;;;23.62;51.03;102212.19;5076739;28;20044;-47
2022/06/16 03:19:20;;;;;;;5.22;2.45;;;;;;;23.60;50.94;102206.97;5077881;28;20070;-48
2022/06/16 03:21:46;;;;;;;4.07;2.30;;;;;;;23.59;51.29;102197.13;5079730;28;20053;-50
2022/06/16 03:24:13;;;;;;;3.30;2.42;;;;;;;23.59;50.84;102204.38;5078267;28;20040;-49
2022/06/16 03:26:39;;;;;;;4.00;2.58;;;;;;;23.59;51.38;102209.81;5078350;28;20040;-47
2022/06/16 03:29:06;;;;;;;4.57;2.13;;;;;;;23.57;51.11;102203.72;5078380;28;20433;-48
2022/06/16 03:31:32;;;;;;;3.42;2.50;;;;;;;23.56;50.98;102208.28;5075286;28;20418;-48
2022/06/16 03:33:59;;;;;;;3.42;2.45;;;;;;;23.56;50.94;102202.88;5076510;28;20329;-48
2022/06/16 03:36:26;;;;;;;3.63;2.50;;;;;;;23.56;50.82;102212.84;5082008;28;20404;-48
2022/06/16 03:38:53;;;;;;;2.63;1.80;;;;;;;23.54;51.40;102209.44;5078050;28;20056;-49
2022/06/16 03:41:19;;;;;;;3.35;2.35;;;;;;;23.54;51.46;102202.16;5078275;28;20045;-47
2022/06/16 03:43:46;;;;;;;3.70;2.40;;;;;;;23.53;51.55;102200.47;5078506;28;20475;-49
2022/06/16 03:46:14;;;;;;;3.75;2.20;;;;;;;23.52;51.56;102206.91;5080466;28;20420;-47
2022/06/16 03:48:41;;;;;;;3.63;2.13;;;;;;;23.52;51.31;102203.34;5077703;28;20048;-47
2022/06/16 03:51:08;;;;;;;3.72;2.13;;;;;;;23.50;51.42;102192.66;5077555;28;20051;-48
2022/06/16 03:53:36;;;;;;;4.18;2.30;;;;;;;23.51;51.27;102191.63;5077341;28;20066;-49
2022/06/16 03:56:04;;;;;;;4.50;2.30;;;;;;;23.49;50.92;102196.38;5078984;28;20036;-48
2022/06/16 03:58:31;;;;;;;4.55;2.25;;;;;;;23.47;51.46;102203.78;5080097;28;20051;-47
2022/06/16 04:00:57;;;;;;;3.35;2.15;;;;;;;23.48;51.29;102202.81;5077621;28;20044;-49
2022/06/16 04:06:11;;;;;;;2.67;2.00;;;;;;;23.47;51.49;102211.91;5076967;28;20044;-47
2022/06/16 04:08:39;;;;;;;3.95;2.17;;;;;;;23.46;51.11;102223.75;5074053;28;20051;-47
2022/06/16 04:13:51;;;;;;;4.45;2.13;;;;;;;23.47;51.05;102228.13;5080841;28;20054;-46
2022/06/16 04:16:19;;;;;;;3.50;2.13;;;;;;;23.45;51.16;102227.47;5076476;28;20068;-45
2022/06/16 04:18:46;;;;;;;2.75;2.13;;;;;;;23.46;51.29;102222.91;5076547;28;20063;-49
2022/06/16 04:21:13;;;;;;;3.25;2.13;;;;;;;23.46;51.35;102231.00;5077044;28;20438;-46
2022/06/16 04:23:40;;;;;;;3.00;2.10;;;;;;;23.45;51.29;102243.69;5078241;28;20506;-47
2022/06/16 04:26:07;;;;;;;5.10;2.25;;;;;;;23.45;50.96;102245.56;5078786;28;20041;-48
2022/06/16 04:28:33;;;;;;;2.72;1.92;;;;;;;23.45;51.57;102253.69;5078955;28;20048;-46
2022/06/16 04:31:00;;;;;;;4.80;2.20;;;;;;;23.43;51.19;102256.53;5079598;28;20042;-46
2022/06/16 04:33:27;;;;;;;2.45;2.13;;;;;;;23.45;51.02;102259.94;5079044;28;20539;-46
2022/06/16 04:35:54;;;;;;;2.63;2.25;;;;;;;23.44;51.09;102266.34;5075126;28;20137;-45
2022/06/16 04:38:21;;;;;;;4.88;1.88;;;;;;;23.44;51.49;102265.47;5073352;28;20054;-46
2022/06/16 04:40:47;;;;;;;2.45;1.70;;;;;;;23.43;51.24;102264.63;5076421;28;20338;-45
2022/06/16 04:43:15;;;;;;;3.08;2.20;;;;;;;23.44;51.20;102263.66;5079521;28;20036;-47
2022/06/16 04:45:42;;;;;;;3.03;1.88;;;;;;;23.43;51.15;102267.34;5078636;28;20064;-48
2022/06/16 04:48:09;;;;;;;3.10;2.00;;;;;;;23.42;51.39;102281.03;5078964;28;20048;-46
2022/06/16 04:50:36;;;;;;;6.57;2.05;;;;;;;23.42;51.49;102283.75;5081665;28;20044;-48
2022/06/16 04:53:04;;;;;;;3.05;2.20;;;;;;;23.41;50.98;102288.31;5078455;28;20039;-46
2022/06/16 04:55:31;;;;;;;3.40;1.92;;;;;;;23.42;50.93;102290.00;5077881;28;20036;-46
2022/06/16 04:57:58;;;;;;;3.30;1.95;;;;;;;23.43;51.56;102293.56;5078767;28;20048;-47
2022/06/16 05:00:24;;;;;;;3.92;2.55;;;;;;;23.45;51.30;102291.56;5075415;28;20113;-47
2022/06/16 05:02:52;;;;;;;3.53;2.00;;;;;;;23.47;51.39;102294.94;5076078;28;20083;-46
2022/06/16 05:05:19;;;;;;;4.05;2.28;;;;;;;23.48;51.52;102302.94;5074757;28;20066;-46
2022/06/16 05:07:45;;;;;;;3.72;1.77;;;;;;;23.52;50.90;102307.03;5069347;28;20431;-46
2022/06/16 05:10:12;;;;;;;3.90;1.80;;;;;;;23.55;51.13;102309.41;5076323;28;20040;-45
2022/06/16 05:12:39;;;;;;;2.75;1.88;;;;;;;23.59;50.93;102315.38;5080715;28;20047;-46
2022/06/16 05:15:06;;;;;;;2.33;1.48;;;;;;;23.61;50.94;102318.78;5081663;28;20052;-48
2022/06/16 05:17:33;;;;;;;3.83;1.70;;;;;;;23.64;51.28;102326.59;5078026;28;20059;-46
2022/06/16 05:19:59;;;;;;;3.85;2.15;;;;;;;23.66;50.52;102331.88;5073693;28;20052;-46
2022/06/16 05:22:26;;;;;;;3.03;1.98;;;;;;;23.67;51.09;102333.56;5075482;28;20046;-46
2022/06/16 05:24:52;;;;;;;3.45;2.28;;;;;;;23.67;50.19;102339.00;5076655;28;20040;-47
2022/06/16 05:27:19;;;;;;;5.65;3.30;;;;;;;23.64;50.75;102335.56;5077501;28;20051;-49
2022/06/16 05:29:46;;;;;;;4.03;2.78;;;;;;;23.64;50.21;102335.56;5074706;28;20331;-50
2022/06/16 05:32:12;;;;;;;6.97;3.00;;;;;;;23.63;50.46;102350.09;5076143;28;20090;-46
2022/06/16 05:34:39;;;;;;;3.88;2.78;;;;;;;23.62;49.94;102353.81;5077833;28;20171;-50
2022/06/16 05:37:06;;;;;;;5.65;3.13;;;;;;;23.61;49.95;102353.97;5073722;28;20040;-50
2022/06/16 05:39:33;;;;;;;6.80;3.20;;;;;;;23.60;50.21;102347.72;5070759;28;20045;-50
2022/06/16 05:41:59;;;;;;;4.57;3.05;;;;;;;23.60;49.71;102352.28;5073135;28;20046;-48
2022/06/16 05:44:26;;;;;;;4.43;2.50;;;;;;;23.58;49.61;102349.69;5073601;28;20036;-49
2022/06/16 05:46:53;;;;;;;8.82;2.83;;;;;;;23.58;49.30;102347.00;5075462;28;20945;-46
2022/06/16 05:49:21;;;;;;;6.35;3.00;;;;;;;23.57;49.95;102347.16;5074863;28;20421;-50
2022/06/16 05:51:48;;;;;;;4.50;3.00;;;;;;;23.57;49.17;102349.88;5070030;28;20106;-49
2022/06/16 05:54:15;;;;;;;8.68;4.63;;;;;;;23.57;49.59;102350.72;5072995;28;20070;-49
2022/06/16 05:56:41;;;;;;;16.30;5.30;;;;;;;23.58;51.73;102355.13;5074307;28;20055;-46
2022/06/16 05:59:08;;;;;;;25.48;6.30;;;;;;;23.61;53.19;102354.81;5071753;28;20412;-48
2022/06/16 06:01:37;;;;;;;17.80;5.38;;;;;;;23.62;54.57;102353.81;5070995;28;20044;-46
2022/06/16 06:04:04;;;;;;;16.52;5.18;;;;;;;23.63;55.18;102358.22;5075094;28;20127;-46
2022/06/16 06:06:31;;;;;;;22.67;5.97;;;;;;;23.63;54.65;102360.06;5076068;28;20048;-47
2022/06/16 06:17:19;;;;;;;11.85;4.97;;;;;;;23.63;53.83;102352.78;5077551;28;20055;-46
2022/06/16 06:19:46;;;;;;;10.95;5.20;;;;;;;23.63;53.77;102352.78;5075270;28;20431;-48
2022/06/16 06:22:16;;;;;;;11.93;5.07;;;;;;;23.62;52.93;102342.97;5079120;28;20045;-45
2022/06/16 06:24:45;;;;;;;14.60;5.38;;;;;;;23.62;52.66;102348.38;5076682;28;20044;-49
2022/06/16 06:27:31;;;;;;;13.23;5.00;;;;;;;23.61;52.46;102352.09;5073220;28;20056;-45
2022/06/16 06:30:08;;;;;;;10.63;5.30;;;;;;;23.62;51.82;102353.81;5078819;28;20055;-45
2022/06/16 06:32:35;;;;;;;11.35;5.15;;;;;;;23.62;51.86;102359.22;5076051;28;20062;-47
2022/06/16 06:35:02;;;;;;;11.63;5.65;;;;;;;23.63;51.63;102358.22;5072607;28;20036;-47
2022/06/16 06:37:29;;;;;;;12.70;5.63;;;;;;;23.63;50.74;102355.50;5072579;28;20056;-48
2022/06/16 06:39:56;;;;;;;9.38;5.07;;;;;;;23.62;51.05;102348.38;5074753;28;20171;-46
2022/06/16 06:42:23;;;;;;;12.00;5.45;;;;;;;23.62;50.79;102356.50;5080931;28;20411;-48
2022/06/16 06:44:50;;;;;;;10.07;4.85;;;;;;;23.62;50.39;102344.84;5072370;28;20495;-45
2022/06/16 06:47:23;;;;;;;11.50;4.88;;;;;;;23.61;49.99;102357.53;5072964;28;20293;-45
2022/06/16 06:49:49;;;;;;;9.07;4.93;;;;;;;23.62;50.24;102348.38;5077762;28;20056;-47
2022/06/16 06:52:16;;;;;;;9.55;4.90;;;;;;;23.61;49.70;102354.81;5077444;28;20148;-49
2022/06/16 06:54:45;;;;;;;10.63;5.88;;;;;;;23.61;49.68;102346.69;5077569;28;20047;-47
2022/06/16 06:57:22;;;;;;;10.10;4.90;;;;;;;23.61;50.29;102352.09;5080273;28;20059;-49
2022/06/16 06:59:50;;;;;;;8.85;4.50;;;;;;;23.61;50.12;102349.41;5078347;28;20138;-47
2022/06/16 07:02:18;;;;;;;7.63;4.47;;;;;;;23.61;49.91;102352.09;5081808;28;20040;-46
2022/06/16 07:04:45;;;;;;;9.15;5.07;;;;;;;23.61;49.90;102353.97;5077058;28;20121;-49
2022/06/16 07:07:17;;;;;;;11.48;4.85;;;;;;;23.61;49.63;102362.94;5075534;28;20131;-47
2022/06/16 07:09:44;;;;;;;8.73;4.30;;;;;;;23.62;50.01;102371.91;5078220;28;20491;-47
2022/06/16 07:12:15;;;;;;;12.50;5.13;;;;;;;23.63;49.83;102365.47;5077678;28;20047;-50
2022/06/16 07:14:44;;;;;;;8.30;3.60;;;;;;;23.62;49.66;102364.63;5078122;28;20048;-46
2022/06/16 07:17:12;;;;;;;7.03;4.20;;;;;;;23.63;50.01;102366.31;5078779;28;20097;-47
2022/06/16 07:19:39;;;;;;;8.60;4.10;;;;;;;23.63;49.90;102371.75;5078254;28;20101;-46
2022/06/16 07:22:06;;;;;;;6.05;3.67;;;;;;;23.63;50.12;102379.88;5077677;28;20163;-47
2022/06/16 07:24:34;;;;;;;6.60;4.25;;;;;;;23.64;50.41;102380.75;5080295;28;20036;-46
2022/06/16 07:27:01;;;;;;;8.73;3.55;;;;;;;23.63;50.50;102382.56;5077642;28;20048;-46
2022/06/16 07:29:28;;;;;;;7.18;4.00;;;;;;;23.63;49.71;102379.88;5080142;28;20055;-46
2022/06/16 07:32:03;;;;;;;7.68;3.85;;;;;;;23.64;49.60;102389.72;5077258;28;20154;-45
2022/06/16 07:34:29;;;;;;;9.98;3.67;;;;;;;23.65;49.95;102393.25;5077106;28;20043;-47
2022/06/16 07:36:56;;;;;;;5.22;3.00;;;;;;;23.66;50.21;102395.00;5075560;28;20062;-46
2022/06/16 07:39:25;;;;;;;7.30;3.92;;;;;;;23.66;50.04;102389.56;5075622;28;20067;-49
2022/06/16 07:41:52;;;;;;;7.95;3.22;;;;;;;23.67;49.61;102398.53;5077676;28;20127;-48
2022/06/16 07:44:18;;;;;;;8.70;2.95;;;;;;;23.68;50.10;102405.66;5079207;28;21786;-47
2022/06/16 07:46:49;;;;;;;6.75;2.95;;;;;;;23.67;49.79;102407.50;5072744;28;20363;-48
2022/06/16 07:49:22;;;;;;;6.00;2.95;;;;;;;23.69;49.50;102412.78;5076714;28;20055;-47
2022/06/16 07:51:50;;;;;;;8.73;3.10;;;;;;;23.68;49.35;102424.59;5075942;28;20040;-49
2022/06/16 07:54:18;;;;;;;7.25;3.60;;;;;;;23.69;49.60;102421.75;5074625;28;20040;-48
2022/06/16 07:57:04;;;;;;;5.82;3.25;;;;;;;23.70;49.92;102420.75;5079838;28;20052;-47
2022/06/16 07:59:31;;;;;;;7.43;3.50;;;;;;;23.69;49.57;102415.50;5078295;28;20048;-47
2022/06/16 08:01:57;;;;;;;9.20;4.22;;;;;;;23.71;49.10;102410.78;5079493;28;21756;-46
2022/06/16 08:04:24;;;;;;;9.05;4.68;;;;;;;23.71;49.05;102417.03;5079290;28;20040;-49
2022/06/16 08:06:51;;;;;;;7.57;4.43;;;;;;;23.72;48.95;102417.88;5083941;28;20127;-46
2022/06/16 08:09:18;;;;;;;7.80;4.38;;;;;;;23.73;49.41;102419.59;5074111;28;20062;-46
2022/06/16 08:12:04;;;;;;;11.35;4.68;;;;;;;23.73;48.71;102415.03;5071805;28;20032;-48
2022/06/16 08:14:32;;;;;;;8.80;4.88;;;;;;;23.75;49.28;102421.13;5075876;28;20052;-46
2022/06/16 08:16:59;;;;;;;10.10;5.13;;;;;;;23.75;49.08;102423.84;5073502;28;20051;-45
2022/06/16 08:19:26;;;;;;;9.38;5.15;;;;;;;23.76;48.93;102424.69;5078485;28;20061;-45
2022/06/16 08:21:52;;;;;;;9.02;4.95;;;;;;;23.77;48.51;102415.59;5072706;28;20516;-46
2022/06/16 08:24:19;;;;;;;7.95;4.43;;;;;;;23.78;48.92;102422.69;5076051;28;20135;-47
2022/06/16 08:26:46;;;;;;;9.73;4.35;;;;;;;23.79;49.03;102424.38;5076465;28;20050;-46
2022/06/16 08:29:15;;;;;;;7.55;4.10;;;;;;;23.78;48.54;102428.13;5076482;28;20390;-47
2022/06/16 08:31:42;;;;;;;8.88;3.00;;;;;;;23.78;46.44;102430.81;5081832;28;20051;-45
2022/06/16 08:34:09;;;;;;;8.57;2.92;;;;;;;23.76;44.85;102430.97;5082380;28;20048;-47
2022/06/16 08:36:36;;;;;;;8.48;2.63;;;;;;;23.76;44.00;102427.41;5083889;28;20542;-46
2022/06/16 08:39:04;;;;;;;6.05;2.80;;;;;;;23.75;42.96;102425.69;5082555;28;20340;-49
2022/06/16 08:41:40;;;;;;;6.35;2.45;;;;;;;23.73;42.81;102427.72;5077189;28;20055;-47
2022/06/16 08:44:24;;;;;;;5.20;2.17;;;;;;;23.71;41.96;102418.88;5077609;28;20390;-48
2022/06/16 08:47:16;;;;;;;6.15;2.40;;;;;;;23.70;41.71;102409.91;5080669;28;20039;-47
2022/06/16 08:50:30;;;;;;;6.85;2.05;;;;;;;23.70;39.84;102417.19;5080695;28;20078;-47
2022/06/16 08:53:19;;;;;;;6.63;1.98;;;;;;;23.69;39.54;102412.78;5069684;28;20050;-46
2022/06/16 08:55:59;;;;;;;3.65;2.00;;;;;;;23.69;39.88;102410.09;5072614;28;20075;-46
2022/06/16 08:58:53;;;;;;;3.65;1.63;;;;;;;23.68;39.93;102411.06;5077162;28;20048;-47
2022/06/16 09:01:44;;;;;;;4.43;1.80;;;;;;;23.67;39.51;102415.63;5074694;28;20178;-48
2022/06/16 09:04:44;;;;;;;5.40;1.52;;;;;;;23.67;40.15;102417.50;5074214;28;20139;-48
2022/06/16 09:07:25;;;;;;;5.45;1.90;;;;;;;23.67;40.60;102431.03;5063920;28;20752;-48
2022/06/16 09:10:16;;;;;;;5.90;2.08;;;;;;;23.68;39.82;102436.31;5072436;28;20473;-46
2022/06/16 09:13:07;;;;;;;4.97;1.75;;;;;;;23.69;39.97;102437.16;5075103;28;20588;-46
2022/06/16 09:15:51;;;;;;;6.45;3.05;;;;;;;23.70;39.34;102437.00;5076157;28;20036;-46
2022/06/16 09:18:30;;;;;;;3.60;1.55;;;;;;;23.71;39.71;102441.41;5072577;28;20044;-47
2022/06/16 09:21:12;;;;;;;2.72;1.45;;;;;;;23.73;40.37;102444.81;5076420;28;20044;-46
2022/06/16 09:23:41;;;;;;;3.47;1.63;;;;;;;23.74;40.03;102441.09;5076640;28;20048;-48
2022/06/16 09:26:26;;;;;;;4.40;1.58;;;;;;;23.75;39.20;102444.66;5079816;28;20090;-47
2022/06/16 09:28:59;;;;;;;4.68;1.70;;;;;;;23.77;40.06;102427.25;5075605;28;20093;-47
2022/06/16 09:31:34;;;;;;;3.78;1.38;;;;;;;23.79;40.35;102427.09;5082743;28;20156;-49
2022/06/16 09:34:10;;;;;;;3.10;1.63;;;;;;;23.81;40.43;102441.34;5078802;28;20083;-46
2022/06/16 09:36:45;;;;;;;5.30;1.50;;;;;;;23.82;39.94;102430.34;5072388;28;20127;-48
2022/06/16 09:39:22;;;;;;;3.35;1.52;;;;;;;23.85;40.83;102435.47;5075577;28;20052;-47
2022/06/16 09:42:35;;;;;;;5.70;1.70;;;;;;;23.88;40.59;102439.75;5077006;28;20373;-49
2022/06/16 09:45:11;;;;;;;6.55;1.48;;;;;;;23.91;41.05;102441.28;5081508;28;20037;-46
2022/06/16 09:48:02;;;;;;;12.70;2.35;;;;;;;23.93;40.33;102445.53;5070417;28;20403;-46
2022/06/16 09:50:36;;;;;;;8.75;2.00;;;;;;;23.95;40.11;102448.94;5080929;28;20042;-46
2022/06/16 09:53:14;;;;;;;10.63;2.60;;;;;;;23.97;39.83;102448.78;5082832;28;20042;-45
2022/06/16 09:55:50;;;;;;;11.35;2.45;;;;;;;23.98;39.35;102453.19;5080613;28;20380;-46
2022/06/16 09:58:58;;;;;;;13.27;2.13;;;;;;;23.99;40.22;102463.88;5078401;28;21251;-45
2022/06/16 10:01:29;;;;;;;12.13;2.30;;;;;;;24.03;39.87;102464.41;5019761;28;20344;-48
2022/06/16 10:04:03;;;;;;;7.57;3.33;;;;;;;24.03;40.29;102459.00;5021889;28;20388;-46
2022/06/16 10:06:48;;;;;;;11.93;2.95;;;;;;;24.05;39.89;102459.72;5056747;28;20060;-49
2022/06/16 10:09:38;;;;;;;10.35;2.67;;;;;;;24.08;40.47;102460.25;5077206;28;20652;-47
2022/06/16 10:12:23;;;;;;;11.68;2.85;;;;;;;24.09;40.34;102458.38;5071417;28;20045;-49
2022/06/16 10:15:15;;;;;;;8.23;2.10;;;;;;;24.11;40.23;102454.50;5073072;28;20045;-47
2022/06/16 10:17:45;;;;;;;7.22;2.00;;;;;;;24.14;40.11;102448.78;5075471;28;20044;-48
2022/06/16 10:20:14;;;;;;;6.35;2.03;;;;;;;24.18;40.13;102445.78;5075383;28;20131;-46
2022/06/16 10:22:47;;;;;;;6.85;2.03;;;;;;;24.18;40.16;102440.34;5076497;28;20056;-49
2022/06/16 10:25:22;;;;;;;9.25;2.38;;;;;;;24.19;40.05;102442.88;5072471;28;20044;-47
2022/06/16 10:28:00;;;;;;;48.65;3.33;;;;;;;24.21;40.63;102445.47;5070757;28;20040;-45
2022/06/16 10:30:35;;;;;;;6.88;1.85;;;;;;;24.22;40.83;102449.88;5084099;28;20072;-48
2022/06/16 10:33:14;;;;;;;6.30;1.83;;;;;;;24.24;40.52;102464.09;5084356;28;20126;-46
2022/06/16 10:36:06;;;;;;;5.20;2.08;;;;;;;24.25;41.01;102461.25;5081649;28;20052;-46
2022/06/16 10:38:41;;;;;;;4.00;2.20;;;;;;;24.28;40.66;102462.78;5080998;28;20424;-47
2022/06/16 10:41:32;;;;;;;4.75;1.60;;;;;;;24.29;41.44;102468.06;5084242;28;20131;-49
2022/06/16 10:44:01;;;;;;;9.10;1.90;;;;;;;24.33;41.64;102472.16;5088376;28;20058;-47
2022/06/16 10:46:35;;;;;;;4.55;1.95;;;;;;;24.33;41.31;102461.31;5080492;28;20062;-46
2022/06/16 10:49:15;;;;;;;4.10;2.50;;;;;;;24.35;41.44;102461.16;5080927;28;20044;-45
2022/06/16 10:52:02;;;;;;;10.95;2.65;;;;;;;24.36;41.36;102461.00;5082651;28;20122;-48
2022/06/16 10:54:35;;;;;;;4.80;1.73;;;;;;;24.38;41.76;102461.72;5079628;28;20066;-48
2022/06/16 10:57:18;;;;;;;3.40;1.52;;;;;;;24.41;41.58;102467.84;5081747;28;20124;-46
2022/06/16 10:59:57;;;;;;;4.75;1.90;;;;;;;24.43;42.21;102463.13;5080914;28;20074;-49
2022/06/16 11:02:28;;;;;;;6.38;2.10;;;;;;;24.44;41.63;102470.22;5081117;28;20438;-48
2022/06/16 11:05:05;;;;;;;3.72;1.70;;;;;;;24.45;42.40;102478.22;5082849;28;20037;-48
2022/06/16 11:07:38;;;;;;;3.63;1.55;;;;;;;24.47;42.06;102468.06;5083664;28;20080;-47
2022/06/16 11:10:32;;;;;;;3.83;1.52;;;;;;;24.48;41.61;102464.34;5082813;28;20044;-47
2022/06/16 11:12:59;;;;;;;;;;;;;;;24.51;41.87;102466.75;5083188;28;20339;-48
2022/06/16 11:15:28;;;;;;;4.03;1.63;;;;;;;24.54;41.49;102458.31;5080684;28;19916;-47
2022/06/16 11:17:58;;;;;;;11.35;1.80;;;;;;;24.54;41.49;102468.28;5082989;28;20384;-46
2022/06/16 11:20:41;;;;;;;4.07;1.83;;;;;;;24.55;41.58;102470.00;5080156;28;20048;-46
2022/06/16 11:23:29;;;;;;;2.65;1.52;;;;;;;24.56;41.78;102452.72;5081184;28;20127;-45
2022/06/16 11:26:18;;;;;;;4.18;1.63;;;;;;;24.57;41.75;102458.00;5082856;28;20044;-45
2022/06/16 11:28:57;;;;;;;2.10;1.35;;;;;;;24.59;41.75;102455.97;5085791;28;20137;-48
2022/06/16 11:31:44;;;;;;;5.95;1.70;;;;;;;24.61;42.08;102453.94;5086539;28;20094;-46
2022/06/16 11:34:21;;;;;;;5.78;1.58;;;;;;;24.62;42.18;102446.66;5080395;28;20089;-45
2022/06/16 11:37:08;;;;;;;2.85;1.30;;;;;;;24.64;42.00;102455.47;5078485;28;20058;-47
2022/06/16 11:39:54;;;;;;;4.03;1.73;;;;;;;24.66;41.86;102452.63;5078748;28;20106;-48
2022/06/16 11:42:42;;;;;;;3.45;1.70;;;;;;;24.68;42.03;102458.72;5079963;28;20044;-46
2022/06/16 11:45:31;;;;;;;1.70;1.25;;;;;;;24.69;42.23;102449.59;5083132;28;20554;-49
2022/06/16 11:48:15;;;;;;;2.88;1.50;;;;;;;24.71;42.00;102442.16;5084985;28;20064;-47
2022/06/16 11:50:54;;;;;;;1.85;1.38;;;;;;;24.73;41.91;102453.69;5085371;28;20083;-48
2022/06/16 11:53:39;;;;;;;3.17;1.70;;;;;;;24.73;42.42;102451.00;5078022;28;20123;-45
2022/06/16 11:56:16;;;;;;;3.10;1.45;;;;;;;24.75;41.99;102457.09;5083214;28;20489;-45
2022/06/16 11:59:19;;;;;;;2.65;1.65;;;;;;;24.76;42.31;102456.91;5081318;28;20056;-44
2022/06/16 12:01:48;;;;;;;2.50;1.50;;;;;;;24.79;42.19;102455.75;5080341;28;20396;-46
2022/06/16 12:04:30;;;;;;;3.28;1.58;;;;;;;24.78;42.11;102457.63;5078260;28;20044;-46
2022/06/16 12:07:41;;;;;;;2.65;1.30;;;;;;;24.79;42.16;102462.03;5079235;28;20043;-48
2022/06/16 12:10:28;;;;;;;2.78;1.30;;;;;;;24.83;42.74;102473.41;5081506;28;20052;-47